sensor_id;sensor_type;location;lat;lon;timestamp;pressure;altitude;pressure_sealevel;temperature;humidity
19576;BME280;41589;51.196;7.074;2023-04-01T00:00:28;96815.78;;;10.08;100.00
19576;BME280;41589;51.196;7.074;2023-04-01T00:05:29;96813.44;;;10.18;100.00
19576;BME280;41589;51.196;7.074;2023-04-01T00:10:29;96814.00;;;10.10;100.00
19576;BME280;41589;51.196;7.074;2023-04-01T00:15:30;96807.34;;;10.08;100.00
19576;BME280;41589;51.196;7.074;2023-04-01T00:20:30;96810.69;;;10.12;100.00
19576;BME280;41589;51.196;7.074;2023-04-01T00:25:31;96821.41;;;10.08;100.00
19576;BME280;41589;51.196;7.074;2023-04-01T00:30:31;96794.06;;;10.08;100.00
19576;BME280;41589;51.196;7.074;2023-04-01T00:35:32;96798.66;;;10.06;100.00
19576;BME280;41589;51.196;7.074;2023-04-01T00:40:39;96793.28;;;10.08;100.00
19576;BME280;41589;51.196;7.074;2023-04-01T00:45:42;96797.91;;;10.11;100.00
19576;BME280;41589;51.196;7.074;2023-04-01T00:50:48;96803.53;;;10.11;100.00
19576;BME280;41589;51.196;7.074;2023-04-01T00:56:22;96797.38;;;10.07;100.00
19576;BME280;41589;51.196;7.074;2023-04-01T01:01:30;96790.00;;;10.09;100.00
19576;BME280;41589;51.196;7.074;2023-04-01T01:06:59;96791.78;;;10.01;100.00
19576;BME280;41589;51.196;7.074;2023-04-01T01:12:14;96782.34;;;9.99;100.00
19576;BME280;41589;51.196;7.074;2023-04-01T01:17:44;96786.13;;;10.07;100.00
19576;BME280;41589;51.196;7.074;2023-04-01T01:39:12;96771.06;;;10.04;100.00
19576;BME280;41589;51.196;7.074;2023-04-01T01:44:15;96786.41;;;10.03;100.00
19576;BME280;41589;51.196;7.074;2023-04-01T01:49:17;96792.31;;;10.00;100.00
19576;BME280;41589;51.196;7.074;2023-04-01T01:54:18;96782.31;;;10.04;100.00
19576;BME280;41589;51.196;7.074;2023-04-01T01:59:20;96783.13;;;9.99;100.00
19576;BME280;41589;51.196;7.074;2023-04-01T02:04:21;96787.69;;;9.97;100.00
19576;BME280;41589;51.196;7.074;2023-04-01T02:09:23;96782.34;;;9.99;100.00
19576;BME280;41589;51.196;7.074;2023-04-01T02:14:30;96784.13;;;9.96;100.00
19576;BME280;41589;51.196;7.074;2023-04-01T02:19:40;96795.66;;;9.93;100.00
19576;BME280;41589;51.196;7.074;2023-04-01T02:24:44;96788.25;;;9.90;100.00
19576;BME280;41589;51.196;7.074;2023-04-01T02:29:50;96783.88;;;9.94;100.00
19576;BME280;41589;51.196;7.074;2023-04-01T02:34:51;96783.41;;;9.90;100.00
19576;BME280;41589;51.196;7.074;2023-04-01T02:39:52;96790.78;;;9.88;100.00
19576;BME280;41589;51.196;7.074;2023-04-01T02:44:52;96783.63;;;9.92;100.00
19576;BME280;41589;51.196;7.074;2023-04-01T02:49:53;96772.41;;;9.87;100.00
19576;BME280;41589;51.196;7.074;2023-04-01T02:54:58;96771.16;;;9.82;100.00
19576;BME280;41589;51.196;7.074;2023-04-01T02:59:58;96781.06;;;9.77;100.00
19576;BME280;41589;51.196;7.074;2023-04-01T03:04:59;96782.88;;;9.75;100.00
19576;BME280;41589;51.196;7.074;2023-04-01T03:10:00;96785.72;;;9.69;100.00
19576;BME280;41589;51.196;7.074;2023-04-01T03:15:00;96784.44;;;9.59;100.00
19576;BME280;41589;51.196;7.074;2023-04-01T03:20:00;96793.88;;;9.50;100.00
19576;BME280;41589;51.196;7.074;2023-04-01T03:25:02;96793.88;;;9.45;100.00
19576;BME280;41589;51.196;7.074;2023-04-01T03:30:04;96783.41;;;9.56;100.00
19576;BME280;41589;51.196;7.074;2023-04-01T03:35:09;96804.34;;;9.50;100.00
19576;BME280;41589;51.196;7.074;2023-04-01T03:40:11;96804.34;;;9.44;100.00
19576;BME280;41589;51.196;7.074;2023-04-01T03:45:12;96803.56;;;9.55;100.00
19576;BME280;41589;51.196;7.074;2023-04-01T03:50:13;96811.75;;;9.64;100.00
19576;BME280;41589;51.196;7.074;2023-04-01T03:55:13;96805.13;;;9.67;100.00
19576;BME280;41589;51.196;7.074;2023-04-01T04:00:14;96800.25;;;9.62;100.00
19576;BME280;41589;51.196;7.074;2023-04-01T04:05:17;96805.38;;;9.58;100.00
19576;BME280;41589;51.196;7.074;2023-04-01T04:10:19;96802.56;;;9.64;100.00
19576;BME280;41589;51.196;7.074;2023-04-01T04:15:20;96817.13;;;9.62;100.00
19576;BME280;41589;51.196;7.074;2023-04-01T04:20:20;96816.88;;;9.60;100.00
19576;BME280;41589;51.196;7.074;2023-04-01T04:25:24;96814.81;;;9.61;100.00
19576;BME280;41589;51.196;7.074;2023-04-01T04:30:24;96812.25;;;9.74;100.00
19576;BME280;41589;51.196;7.074;2023-04-01T04:35:25;96814.03;;;9.71;100.00
19576;BME280;41589;51.196;7.074;2023-04-01T04:40:25;96805.34;;;9.75;100.00
19576;BME280;41589;51.196;7.074;2023-04-01T04:45:32;96810.97;;;9.75;100.00
19576;BME280;41589;51.196;7.074;2023-04-01T04:50:35;96814.78;;;9.77;100.00
19576;BME280;41589;51.196;7.074;2023-04-01T04:55:36;96820.44;;;9.72;100.00
19576;BME280;41589;51.196;7.074;2023-04-01T05:00:56;96830.38;;;9.78;100.00
19576;BME280;41589;51.196;7.074;2023-04-01T05:06:02;96829.88;;;9.74;100.00
19576;BME280;41589;51.196;7.074;2023-04-01T05:11:03;96830.88;;;9.77;100.00
19576;BME280;41589;51.196;7.074;2023-04-01T05:16:24;96835.53;;;9.80;100.00
19576;BME280;41589;51.196;7.074;2023-04-01T05:21:28;96842.13;;;9.71;100.00
19576;BME280;41589;51.196;7.074;2023-04-01T05:26:36;96842.88;;;9.66;100.00
19576;BME280;41589;51.196;7.074;2023-04-01T05:31:43;96841.09;;;9.74;100.00
19576;BME280;41589;51.196;7.074;2023-04-01T05:36:43;96848.25;;;9.64;100.00
19576;BME280;41589;51.196;7.074;2023-04-01T05:41:44;96852.84;;;9.73;100.00
19576;BME280;41589;51.196;7.074;2023-04-01T05:46:45;96850.06;;;9.67;100.00
19576;BME280;41589;51.196;7.074;2023-04-01T05:51:57;96845.19;;;9.73;100.00
19576;BME280;41589;51.196;7.074;2023-04-01T05:56:57;96855.16;;;9.74;100.00
19576;BME280;41589;51.196;7.074;2023-04-01T06:01:58;96857.47;;;9.70;100.00
19576;BME280;41589;51.196;7.074;2023-04-01T06:06:58;96859.72;;;9.77;100.00
19576;BME280;41589;51.196;7.074;2023-04-01T06:17:39;96865.38;;;9.72;100.00
19576;BME280;41589;51.196;7.074;2023-04-01T06:22:47;96871.25;;;9.74;100.00
19576;BME280;41589;51.196;7.074;2023-04-01T06:33:35;96883.00;;;9.72;100.00
19576;BME280;41589;51.196;7.074;2023-04-01T06:39:09;96885.78;;;9.67;100.00
19576;BME280;41589;51.196;7.074;2023-04-01T06:50:08;96897.03;;;9.61;100.00
19576;BME280;41589;51.196;7.074;2023-04-01T06:55:46;96894.50;;;9.69;100.00
19576;BME280;41589;51.196;7.074;2023-04-01T07:00:54;96896.78;;;9.70;100.00
19576;BME280;41589;51.196;7.074;2023-04-01T07:06:00;96893.72;;;9.74;100.00
19576;BME280;41589;51.196;7.074;2023-04-01T07:11:06;96903.41;;;9.73;100.00
19576;BME280;41589;51.196;7.074;2023-04-01T07:16:32;96903.16;;;9.76;100.00
19576;BME280;41589;51.196;7.074;2023-04-01T07:21:45;96905.47;;;9.72;100.00
19576;BME280;41589;51.196;7.074;2023-04-01T07:26:57;96920.00;;;9.65;100.00
19576;BME280;41589;51.196;7.074;2023-04-01T07:32:21;96918.72;;;9.66;100.00
19576;BME280;41589;51.196;7.074;2023-04-01T07:37:38;96925.13;;;9.67;100.00
19576;BME280;41589;51.196;7.074;2023-04-01T08:04:47;96949.91;;;9.63;100.00
19576;BME280;41589;51.196;7.074;2023-04-01T08:09:53;96952.47;;;9.72;100.00
19576;BME280;41589;51.196;7.074;2023-04-01T08:15:22;96961.38;;;9.65;100.00
19576;BME280;41589;51.196;7.074;2023-04-01T08:20:39;96963.19;;;9.73;100.00
19576;BME280;41589;51.196;7.074;2023-04-01T08:25:48;96979.28;;;9.67;100.00
19576;BME280;41589;51.196;7.074;2023-04-01T08:30:57;96979.00;;;9.65;100.00
19576;BME280;41589;51.196;7.074;2023-04-01T08:36:11;96981.84;;;9.71;100.00
19576;BME280;41589;51.196;7.074;2023-04-01T08:41:37;96984.13;;;9.72;100.00
19576;BME280;41589;51.196;7.074;2023-04-01T09:13:51;97027.53;;;9.77;100.00
19576;BME280;41589;51.196;7.074;2023-04-01T09:24:42;97037.56;;;9.83;100.00
19576;BME280;41589;51.196;7.074;2023-04-01T09:40:16;97051.63;;;9.89;100.00
19576;BME280;41589;51.196;7.074;2023-04-01T09:56:14;97068.75;;;9.97;100.00
19576;BME280;41589;51.196;7.074;2023-04-01T10:01:34;97075.63;;;9.96;100.00
19576;BME280;41589;51.196;7.074;2023-04-01T10:07:31;97080.00;;;10.08;100.00
19576;BME280;41589;51.196;7.074;2023-04-01T10:34:44;97119.34;;;9.91;100.00
19576;BME280;41589;51.196;7.074;2023-04-01T10:40:13;97116.53;;;10.02;100.00
19576;BME280;41589;51.196;7.074;2023-04-01T10:51:12;97111.72;;;10.14;100.00
19576;BME280;41589;51.196;7.074;2023-04-01T10:56:36;97118.09;;;10.03;100.00
19576;BME280;41589;51.196;7.074;2023-04-01T11:24:11;97140.03;;;9.94;100.00
19576;BME280;41589;51.196;7.074;2023-04-01T11:47:13;97165.06;;;9.97;100.00
19576;BME280;41589;51.196;7.074;2023-04-01T11:52:41;97177.84;;;9.98;100.00
19576;BME280;41589;51.196;7.074;2023-04-01T11:57:56;97182.97;;;10.00;100.00
19576;BME280;41589;51.196;7.074;2023-04-01T12:09:12;97185.53;;;10.03;100.00
19576;BME280;41589;51.196;7.074;2023-04-01T12:30:47;97226.75;;;10.29;100.00
19576;BME280;41589;51.196;7.074;2023-04-01T12:41:42;97230.88;;;10.33;100.00
19576;BME280;41589;51.196;7.074;2023-04-01T12:52:31;97240.81;;;10.29;100.00
19576;BME280;41589;51.196;7.074;2023-04-01T13:19:09;97270.56;;;10.52;100.00
19576;BME280;41589;51.196;7.074;2023-04-01T13:29:39;97283.13;;;10.62;100.00
19576;BME280;41589;51.196;7.074;2023-04-01T13:40:13;97288.00;;;10.67;100.00
19576;BME280;41589;51.196;7.074;2023-04-01T13:50:55;97289.03;;;10.64;100.00
19576;BME280;41589;51.196;7.074;2023-04-01T13:56:16;97292.34;;;10.68;100.00
19576;BME280;41589;51.196;7.074;2023-04-01T14:01:36;97296.44;;;10.62;100.00
19576;BME280;41589;51.196;7.074;2023-04-01T14:12:30;97310.25;;;10.65;100.00
19576;BME280;41589;51.196;7.074;2023-04-01T14:28:26;97330.75;;;10.71;100.00
19576;BME280;41589;51.196;7.074;2023-04-01T14:33:51;97332.25;;;10.61;100.00
19576;BME280;41589;51.196;7.074;2023-04-01T14:50:06;97344.28;;;10.67;100.00
19576;BME280;41589;51.196;7.074;2023-04-01T14:55:31;97348.63;;;10.63;100.00
19576;BME280;41589;51.196;7.074;2023-04-01T15:00:48;97352.16;;;10.52;100.00
19576;BME280;41589;51.196;7.074;2023-04-01T15:16:34;97364.91;;;10.48;100.00
19576;BME280;41589;51.196;7.074;2023-04-01T15:21:56;97372.88;;;10.55;100.00
19576;BME280;41589;51.196;7.074;2023-04-01T15:32:21;97377.22;;;10.56;100.00
19576;BME280;41589;51.196;7.074;2023-04-01T15:37:41;97377.19;;;10.50;100.00
19576;BME280;41589;51.196;7.074;2023-04-01T15:48:01;97404.78;;;10.46;100.00
19576;BME280;41589;51.196;7.074;2023-04-01T15:53:12;97411.69;;;10.45;100.00
19576;BME280;41589;51.196;7.074;2023-04-01T16:04:47;97415.53;;;10.42;100.00
19576;BME280;41589;51.196;7.074;2023-04-01T16:09:39;97424.72;;;10.42;100.00
19576;BME280;41589;51.196;7.074;2023-04-01T16:14:59;97429.81;;;10.38;100.00
19576;BME280;41589;51.196;7.074;2023-04-01T16:20:22;97432.34;;;10.36;100.00
19576;BME280;41589;51.196;7.074;2023-04-01T16:25:41;97440.78;;;10.31;100.00
19576;BME280;41589;51.196;7.074;2023-04-01T16:36:29;97450.50;;;10.30;100.00
19576;BME280;41589;51.196;7.074;2023-04-01T16:41:36;97457.88;;;10.27;100.00
19576;BME280;41589;51.196;7.074;2023-04-01T16:46:44;97460.66;;;10.22;100.00
19576;BME280;41589;51.196;7.074;2023-04-01T17:02:13;97477.06;;;9.97;100.00
19576;BME280;41589;51.196;7.074;2023-04-01T17:07:50;97490.06;;;9.95;100.00
19576;BME280;41589;51.196;7.074;2023-04-01T17:23:52;97509.84;;;10.06;100.00
19576;BME280;41589;51.196;7.074;2023-04-01T17:44:44;97544.63;;;10.08;100.00
19576;BME280;41589;51.196;7.074;2023-04-01T17:50:02;97553.19;;;10.20;100.00
19576;BME280;41589;51.196;7.074;2023-04-01T18:00:26;97563.34;;;10.17;100.00
19576;BME280;41589;51.196;7.074;2023-04-01T18:11:11;97580.72;;;10.16;100.00
19576;BME280;41589;51.196;7.074;2023-04-01T18:16:39;97593.75;;;10.13;100.00
19576;BME280;41589;51.196;7.074;2023-04-01T18:21:50;97600.13;;;10.13;100.00
19576;BME280;41589;51.196;7.074;2023-04-01T18:27:04;97597.06;;;10.11;100.00
19576;BME280;41589;51.196;7.074;2023-04-01T18:32:22;97609.56;;;10.10;100.00
19576;BME280;41589;51.196;7.074;2023-04-01T18:43:02;97619.44;;;10.00;100.00
19576;BME280;41589;51.196;7.074;2023-04-01T18:53:20;97648.63;;;10.08;100.00
19576;BME280;41589;51.196;7.074;2023-04-01T19:08:44;97659.22;;;9.93;100.00
19576;BME280;41589;51.196;7.074;2023-04-01T19:30:40;97691.28;;;9.81;100.00
19576;BME280;41589;51.196;7.074;2023-04-01T19:36:22;97690.28;;;9.84;100.00
19576;BME280;41589;51.196;7.074;2023-04-01T19:41:32;97692.22;;;9.78;100.00
19576;BME280;41589;51.196;7.074;2023-04-01T19:46:44;97693.69;;;9.73;100.00
19576;BME280;41589;51.196;7.074;2023-04-01T19:57:18;97704.16;;;9.73;100.00
19576;BME280;41589;51.196;7.074;2023-04-01T20:02:43;;;;9.73;
19576;BME280;41589;51.196;7.074;2023-04-01T20:07:59;97717.94;;;9.71;100.00
19576;BME280;41589;51.196;7.074;2023-04-01T20:13:25;97735.06;;;9.73;100.00
19576;BME280;41589;51.196;7.074;2023-04-01T20:18:39;97745.16;;;9.79;100.00
19576;BME280;41589;51.196;7.074;2023-04-01T20:23:54;97757.16;;;9.80;100.00
19576;BME280;41589;51.196;7.074;2023-04-01T20:40:26;97769.88;;;9.96;100.00
19576;BME280;41589;51.196;7.074;2023-04-01T20:45:38;97763.06;;;9.82;100.00
19576;BME280;41589;51.196;7.074;2023-04-01T20:50:52;97777.69;;;9.86;100.00
19576;BME280;41589;51.196;7.074;2023-04-01T21:17:26;97800.19;;;10.06;100.00
19576;BME280;41589;51.196;7.074;2023-04-01T21:22:48;97807.34;;;10.07;100.00
19576;BME280;41589;51.196;7.074;2023-04-01T21:50:41;97842.19;;;10.30;100.00
19576;BME280;41589;51.196;7.074;2023-04-01T22:06:03;97865.38;;;10.25;100.00
19576;BME280;41589;51.196;7.074;2023-04-01T22:23:26;97891.25;;;10.50;100.00
19576;BME280;41589;51.196;7.074;2023-04-01T22:28:52;97900.81;;;10.37;100.00
19576;BME280;41589;51.196;7.074;2023-04-01T22:40:00;97922.78;;;10.54;100.00
19576;BME280;41589;51.196;7.074;2023-04-01T22:45:38;97931.69;;;10.32;100.00
19576;BME280;41589;51.196;7.074;2023-04-01T22:57:04;97972.69;;;9.06;100.00
19576;BME280;41589;51.196;7.074;2023-04-01T23:02:45;97978.56;;;8.45;100.00
19576;BME280;41589;51.196;7.074;2023-04-01T23:13:44;97993.47;;;8.51;100.00
19576;BME280;41589;51.196;7.074;2023-04-01T23:19:36;98011.34;;;8.30;100.00
19576;BME280;41589;51.196;7.074;2023-04-01T23:36:14;98045.00;;;7.51;100.00
19576;BME280;41589;51.196;7.074;2023-04-01T23:41:28;98045.28;;;7.71;100.00
19576;BME280;41589;51.196;7.074;2023-04-01T23:46:40;98056.91;;;7.79;100.00
